Time;durP1;ratioP1;P1;durP2;ratioP2;P2;SDS_P1;SDS_P2;PMS_P1;PMS_P2;Temp;Humidity;BMP_temperature;BMP_pressure;BME280_temperature;BME280_humidity;BME280_pressure;Samples;Min_cycle;Max_cycle;Signal;HPM_P1;HPM_P2
2022/10/15 00:00:47;;;;;;;2.60;1.45;;;14.60;99.90;;;;;;4973434;28;20494;-74
2022/10/15 00:03:14;;;;;;;2.35;1.50;;;14.60;99.90;;;;;;4973331;28;20034;-73
2022/10/15 00:05:40;;;;;;;1.40;0.88;;;14.60;99.90;;;;;;4988431;28;20030;-73
2022/10/15 00:08:08;;;;;;;2.55;1.20;;;14.60;99.90;;;;;;4973208;28;20478;-73
2022/10/15 00:10:35;;;;;;;1.48;1.00;;;14.70;99.90;;;;;;4971516;28;20039;-73
2022/10/15 00:13:01;;;;;;;2.60;1.55;;;14.60;99.90;;;;;;4971567;28;20038;-74
2022/10/15 00:15:28;;;;;;;4.13;1.40;;;14.70;99.90;;;;;;4988240;28;20069;-74
2022/10/15 00:17:55;;;;;;;2.42;1.10;;;14.60;99.90;;;;;;4987849;28;20026;-74
2022/10/15 00:20:21;;;;;;;1.77;1.17;;;14.70;99.90;;;;;;4973324;28;20039;-74
2022/10/15 00:22:47;;;;;;;7.63;1.38;;;14.70;99.90;;;;;;4973085;28;20077;-75
2022/10/15 00:25:13;;;;;;;2.58;1.65;;;14.70;99.90;;;;;;4988163;28;20434;-75
2022/10/15 00:27:39;;;;;;;2.63;1.35;;;14.70;99.90;;;;;;4987806;28;20121;-72
2022/10/15 00:30:06;;;;;;;2.00;1.23;;;14.80;99.90;;;;;;4987687;28;20031;-73
2022/10/15 00:32:32;;;;;;;1.13;0.82;;;14.70;99.90;;;;;;4972495;28;20031;-73
2022/10/15 00:34:58;;;;;;;2.63;0.93;;;14.80;99.90;;;;;;4987551;28;20130;-73
2022/10/15 00:37:24;;;;;;;3.33;1.10;;;14.80;99.90;;;;;;4972758;28;20489;-72
2022/10/15 00:39:50;;;;;;;7.60;1.45;;;14.80;99.90;;;;;;4987657;28;20117;-73
2022/10/15 00:42:16;;;;;;;5.15;0.98;;;14.80;99.90;;;;;;4972563;28;20121;-72
2022/10/15 00:44:56;;;;;;;2.30;1.70;;;14.80;99.90;;;;;;4987814;28;20031;-73
2022/10/15 00:47:38;;;;;;;1.67;1.13;;;14.80;99.90;;;;;;4987415;28;20049;-74
2022/10/15 00:50:10;;;;;;;1.83;1.15;;;14.80;99.90;;;;;;4987236;28;20483;-74
2022/10/15 00:52:59;;;;;;;2.15;1.40;;;14.80;99.90;;;;;;4986636;28;20042;-73
2022/10/15 00:55:41;;;;;;;1.70;1.10;;;14.90;99.90;;;;;;4985294;28;20023;-73
2022/10/15 00:58:20;;;;;;;4.63;1.55;;;14.90;99.90;;;;;;4987048;28;20085;-73
2022/10/15 01:00:46;;;;;;;1.55;0.93;;;15.00;99.90;;;;;;4986783;28;20034;-73
2022/10/15 01:03:12;;;;;;;1.50;0.85;;;15.00;99.90;;;;;;4970876;28;20033;-73
2022/10/15 01:05:39;;;;;;;0.65;0.40;;;15.10;99.90;;;;;;4978238;28;20402;-73
2022/10/15 01:08:05;;;;;;;1.00;0.77;;;15.10;99.90;;;;;;4988692;28;20031;-72
2022/10/15 01:10:54;;;;;;;0.93;0.47;;;15.10;99.90;;;;;;5002942;28;20037;-73
2022/10/15 01:13:37;;;;;;;0.88;0.68;;;15.10;99.90;;;;;;4990208;28;20388;-73
2022/10/15 01:16:23;;;;;;;2.28;0.70;;;15.10;99.90;;;;;;4978178;28;20109;-73
2022/10/15 01:18:59;;;;;;;0.95;0.70;;;15.20;99.90;;;;;;4970869;28;20398;-73
2022/10/15 01:21:46;;;;;;;0.30;0.20;;;15.20;99.90;;;;;;4971097;28;20030;-73
2022/10/15 01:24:21;;;;;;;1.80;0.80;;;15.20;99.90;;;;;;4980787;28;20030;-74
2022/10/15 01:27:22;;;;;;;0.40;0.38;;;15.30;99.90;;;;;;4991255;28;20035;-74
2022/10/15 01:30:33;;;;;;;0.40;0.40;;;15.20;99.90;;;;;;4990258;28;20553;-74
2022/10/15 01:33:33;;;;;;;0.35;0.28;;;15.20;99.90;;;;;;4990789;28;20070;-74
2022/10/15 01:36:46;;;;;;;0.77;0.57;;;15.30;99.90;;;;;;4991396;28;20034;-74
2022/10/15 01:39:37;;;;;;;1.15;0.57;;;15.30;99.90;;;;;;4990606;28;20039;-74
2022/10/15 01:42:16;;;;;;;1.08;0.45;;;15.40;99.90;;;;;;4990204;28;20122;-74
2022/10/15 01:44:51;;;;;;;0.88;0.30;;;15.30;99.90;;;;;;4971070;28;20124;-74
2022/10/15 01:47:25;;;;;;;1.17;0.63;;;15.30;99.90;;;;;;4970572;28;20572;-74
2022/10/15 01:49:54;;;;;;;0.88;0.35;;;15.30;99.90;;;;;;4971974;28;20038;-74
2022/10/15 01:52:29;;;;;;;0.45;0.45;;;15.30;99.90;;;;;;4970170;28;20033;-74
2022/10/15 01:54:55;;;;;;;1.15;0.40;;;15.30;99.90;;;;;;4970747;28;20031;-74
2022/10/15 01:57:24;;;;;;;0.30;0.30;;;15.40;99.90;;;;;;4970671;28;20074;-74
2022/10/15 01:59:51;;;;;;;0.63;0.55;;;15.30;99.90;;;;;;4970613;28;20066;-74
2022/10/15 02:02:17;;;;;;;0.73;0.40;;;15.30;99.90;;;;;;4970190;28;20113;-74
2022/10/15 02:04:42;;;;;;;1.65;0.47;;;15.30;99.90;;;;;;4971797;28;20086;-74
2022/10/15 02:07:39;;;;;;;0.65;0.50;;;15.30;99.90;;;;;;4970370;28;20088;-74
2022/10/15 02:10:35;;;;;;;1.13;0.73;;;15.40;99.90;;;;;;4971701;28;20035;-74
2022/10/15 02:13:16;;;;;;;0.20;0.20;;;15.30;99.90;;;;;;4970205;28;20078;-74
2022/10/15 02:16:09;;;;;;;1.70;0.43;;;15.30;99.90;;;;;;4981992;28;20048;-74
2022/10/15 02:18:45;;;;;;;0.63;0.38;;;15.30;99.90;;;;;;5015241;23;20133;-71
2022/10/15 02:21:21;;;;;;;2.88;0.57;;;15.40;99.90;;;;;;4979388;28;20039;-71
2022/10/15 02:24:15;;;;;;;0.40;0.40;;;15.40;99.90;;;;;;5005052;28;20190;-69
2022/10/15 02:26:42;;;;;;;0.43;0.32;;;15.40;99.90;;;;;;5004373;28;20037;-69
2022/10/15 02:29:14;;;;;;;0.60;0.40;;;15.40;99.90;;;;;;5005955;28;20034;-69
2022/10/15 02:31:43;;;;;;;0.73;0.38;;;15.40;99.90;;;;;;4989976;28;20045;-69
2022/10/15 02:34:16;;;;;;;0.28;0.20;;;15.40;99.90;;;;;;4992776;28;20034;-72
2022/10/15 02:36:42;;;;;;;0.40;0.22;;;15.30;99.90;;;;;;4994472;28;20410;-72
2022/10/15 02:39:13;;;;;;;3.13;0.47;;;15.40;99.90;;;;;;4992994;28;20041;-70
2022/10/15 02:41:39;;;;;;;;;;;15.40;99.90;;;;;;4993765;28;20050;-70
2022/10/15 02:44:05;;;;;;;0.20;0.20;;;15.40;99.90;;;;;;4992906;28;20353;-70
2022/10/15 02:46:31;;;;;;;0.30;0.25;;;15.40;99.90;;;;;;4993016;28;20500;-70
2022/10/15 02:48:56;;;;;;;0.40;0.30;;;15.40;99.90;;;;;;4994155;28;20125;-70
2022/10/15 02:51:22;;;;;;;0.28;0.20;;;15.40;99.90;;;;;;4994191;28;20081;-70
2022/10/15 02:53:48;;;;;;;0.57;0.40;;;15.40;99.90;;;;;;4993917;28;20060;-70
2022/10/15 02:56:14;;;;;;;0.20;0.10;;;15.50;99.90;;;;;;4994116;28;20646;-70
2022/10/15 02:58:40;;;;;;;0.40;0.20;;;15.40;99.90;;;;;;4993721;28;20018;-70
2022/10/15 03:01:06;;;;;;;0.60;0.30;;;15.40;99.90;;;;;;4992794;28;20482;-70
2022/10/15 03:03:32;;;;;;;0.47;0.30;;;15.40;99.90;;;;;;5008145;28;20069;-70
2022/10/15 03:05:57;;;;;;;0.80;0.20;;;15.40;99.90;;;;;;5023944;28;20037;-70
2022/10/15 03:08:23;;;;;;;0.20;0.20;;;15.40;99.90;;;;;;5014582;28;20506;-70
2022/10/15 03:10:48;;;;;;;0.17;0.17;;;15.50;99.90;;;;;;4995598;28;20026;-70
2022/10/15 03:13:14;;;;;;;0.10;0.10;;;15.50;99.90;;;;;;5012909;28;20026;-69
2022/10/15 03:15:40;;;;;;;1.05;0.38;;;15.50;99.90;;;;;;5013262;28;20034;-70
2022/10/15 03:18:06;;;;;;;0.70;0.45;;;15.50;99.90;;;;;;5012953;28;20030;-70
2022/10/15 03:20:32;;;;;;;0.32;0.30;;;15.50;99.90;;;;;;5013163;28;20026;-70
2022/10/15 03:22:58;;;;;;;0.25;0.25;;;15.50;99.90;;;;;;4995296;28;20033;-70
2022/10/15 03:25:23;;;;;;;0.00;0.00;;;15.50;99.90;;;;;;4995792;28;20072;-70
2022/10/15 03:27:51;;;;;;;0.17;0.17;;;15.50;99.90;;;;;;5012943;28;20500;-70
2022/10/15 03:30:18;;;;;;;0.60;0.38;;;15.50;99.90;;;;;;5012938;28;20463;-70
2022/10/15 03:32:44;;;;;;;0.28;0.28;;;15.60;99.90;;;;;;4995127;28;20032;-70
2022/10/15 03:35:09;;;;;;;0.43;0.28;;;15.50;99.90;;;;;;5012856;28;20121;-70
2022/10/15 03:37:35;;;;;;;1.35;0.25;;;15.50;99.90;;;;;;5012605;28;20030;-70
2022/10/15 03:40:01;;;;;;;0.20;0.20;;;15.50;99.90;;;;;;5012675;28;20022;-70
2022/10/15 03:42:27;;;;;;;0.10;0.10;;;15.50;99.90;;;;;;5012636;28;20065;-70
2022/10/15 03:44:53;;;;;;;0.10;0.10;;;15.50;99.90;;;;;;5011744;28;20076;-70
2022/10/15 03:47:19;;;;;;;0.22;0.20;;;15.50;99.90;;;;;;5012827;28;20029;-70
2022/10/15 03:49:44;;;;;;;0.20;0.00;;;15.50;99.90;;;;;;5012280;28;20045;-70
2022/10/15 03:52:10;;;;;;;0.20;0.20;;;15.50;99.90;;;;;;4995009;28;20041;-70
2022/10/15 03:54:35;;;;;;;0.30;0.10;;;15.50;99.90;;;;;;5012214;28;20026;-70
2022/10/15 03:57:01;;;;;;;0.30;0.30;;;15.50;99.90;;;;;;5012234;28;20030;-69
2022/10/15 03:59:27;;;;;;;0.50;0.30;;;15.50;99.90;;;;;;4994686;28;20398;-71
2022/10/15 04:01:52;;;;;;;2.30;0.10;;;15.50;99.90;;;;;;5012285;28;20045;-70
2022/10/15 04:04:18;;;;;;;0.28;0.20;;;15.50;99.90;;;;;;4994336;28;20045;-70
2022/10/15 04:06:46;;;;;;;1.17;0.20;;;15.50;99.90;;;;;;5012293;28;20033;-70
2022/10/15 04:09:13;;;;;;;1.23;0.20;;;15.50;99.90;;;;;;5011974;28;20109;-69
2022/10/15 04:11:39;;;;;;;0.20;0.13;;;15.60;99.90;;;;;;4994476;28;20103;-70
2022/10/15 04:14:05;;;;;;;1.80;0.50;;;15.60;99.90;;;;;;5011860;28;20469;-70
2022/10/15 04:16:32;;;;;;;0.55;0.30;;;15.60;99.90;;;;;;4994471;28;20033;-70
2022/10/15 04:18:58;;;;;;;0.30;0.13;;;15.50;99.90;;;;;;5011130;28;20417;-69
2022/10/15 04:21:25;;;;;;;0.30;0.20;;;15.60;99.90;;;;;;5010970;28;20033;-70
2022/10/15 04:23:50;;;;;;;0.40;0.20;;;15.60;99.90;;;;;;5011016;28;20029;-70
2022/10/15 04:26:16;;;;;;;0.08;0.08;;;15.60;99.90;;;;;;5011087;28;20164;-70
2022/10/15 04:28:42;;;;;;;0.50;0.20;;;15.60;99.90;;;;;;5010953;28;20033;-70
2022/10/15 04:31:08;;;;;;;0.38;0.20;;;15.60;99.90;;;;;;5010974;28;20119;-70
2022/10/15 04:33:34;;;;;;;0.10;0.10;;;15.60;99.90;;;;;;5010513;28;20359;-70
2022/10/15 04:36:03;;;;;;;0.20;0.20;;;15.60;99.90;;;;;;5010953;28;20036;-71
2022/10/15 04:38:29;;;;;;;0.03;0.03;;;15.60;99.90;;;;;;4993511;28;20034;-71
2022/10/15 04:41:05;;;;;;;0.25;0.20;;;15.60;99.90;;;;;;5010781;28;20116;-71
2022/10/15 04:43:32;;;;;;;2.35;0.20;;;15.50;99.90;;;;;;4993197;28;20037;-71
2022/10/15 04:45:59;;;;;;;0.22;0.20;;;15.50;99.90;;;;;;5010725;28;20033;-69
2022/10/15 04:48:28;;;;;;;0.55;0.30;;;15.60;99.90;;;;;;5010581;28;20036;-69
2022/10/15 04:50:54;;;;;;;0.57;0.35;;;15.50;99.90;;;;;;5010424;28;20108;-70
2022/10/15 04:53:21;;;;;;;0.28;0.20;;;15.50;99.90;;;;;;4993028;28;20041;-69
2022/10/15 04:55:47;;;;;;;0.65;0.30;;;15.60;99.90;;;;;;5010470;28;20104;-69
2022/10/15 04:58:13;;;;;;;0.30;0.20;;;15.60;99.90;;;;;;5010585;28;20160;-70
2022/10/15 05:00:39;;;;;;;0.68;0.43;;;15.60;99.90;;;;;;4992722;28;20029;-70
2022/10/15 05:03:05;;;;;;;0.75;0.40;;;15.70;99.90;;;;;;5010117;28;20032;-70
2022/10/15 05:05:31;;;;;;;0.43;0.32;;;15.60;99.90;;;;;;4992926;28;20049;-70
2022/10/15 05:08:02;;;;;;;0.40;0.40;;;15.60;99.90;;;;;;4976889;28;20034;-70
2022/10/15 05:10:28;;;;;;;0.45;0.28;;;15.60;99.90;;;;;;4992828;28;20034;-70
2022/10/15 05:12:54;;;;;;;0.50;0.50;;;15.60;99.90;;;;;;5010108;28;20034;-70
2022/10/15 05:15:19;;;;;;;0.10;0.10;;;15.70;99.90;;;;;;5010210;28;20060;-70
2022/10/15 05:17:45;;;;;;;0.10;0.10;;;15.60;99.90;;;;;;5000779;28;109573;-70
2022/10/15 05:20:11;;;;;;;0.20;0.10;;;15.60;99.90;;;;;;4998973;28;20081;-70
2022/10/15 05:22:36;;;;;;;0.55;0.28;;;15.70;99.90;;;;;;5010832;28;20022;-70
2022/10/15 05:25:03;;;;;;;0.52;0.30;;;15.80;99.90;;;;;;5011016;28;20109;-70
2022/10/15 05:27:28;;;;;;;0.40;0.30;;;15.70;99.90;;;;;;5010693;28;20026;-70
2022/10/15 05:29:54;;;;;;;0.30;0.20;;;15.70;99.90;;;;;;5010982;28;20122;-71
2022/10/15 05:32:20;;;;;;;0.98;0.30;;;15.70;99.90;;;;;;4992934;28;20075;-70
2022/10/15 05:34:45;;;;;;;0.25;0.25;;;15.70;99.90;;;;;;5010587;28;20577;-70
2022/10/15 05:37:11;;;;;;;0.47;0.38;;;15.70;99.90;;;;;;5010652;28;20040;-70
2022/10/15 05:39:37;;;;;;;0.60;0.57;;;15.70;99.90;;;;;;5008169;28;20075;-70
2022/10/15 05:42:02;;;;;;;0.45;0.30;;;15.70;99.90;;;;;;4991045;28;20045;-71
2022/10/15 05:44:28;;;;;;;0.52;0.30;;;15.70;99.90;;;;;;4973733;28;20110;-70
2022/10/15 05:46:54;;;;;;;1.02;0.70;;;15.70;99.90;;;;;;4975965;28;20050;-70
2022/10/15 05:49:19;;;;;;;0.73;0.45;;;15.70;99.90;;;;;;4998946;28;20026;-71
2022/10/15 05:51:45;;;;;;;1.40;0.47;;;15.70;99.90;;;;;;4992841;28;20038;-72
2022/10/15 05:54:11;;;;;;;0.88;0.20;;;15.70;99.90;;;;;;4991741;28;20586;-71
2022/10/15 05:56:36;;;;;;;0.55;0.43;;;15.70;99.90;;;;;;5009986;28;20033;-70
2022/10/15 05:59:03;;;;;;;0.60;0.40;;;15.70;99.90;;;;;;5010606;28;20037;-71
2022/10/15 06:01:29;;;;;;;0.57;0.57;;;15.70;99.90;;;;;;5012677;28;20447;-71
2022/10/15 06:03:54;;;;;;;1.23;0.45;;;15.70;99.90;;;;;;5010455;28;20068;-72
2022/10/15 06:06:27;;;;;;;0.43;0.35;;;15.70;99.90;;;;;;5010536;28;20072;-68
2022/10/15 06:08:54;;;;;;;1.60;0.65;;;15.70;99.90;;;;;;5014085;28;20037;-69
2022/10/15 06:11:20;;;;;;;0.35;0.30;;;15.80;99.90;;;;;;4993547;28;20026;-69
2022/10/15 06:13:46;;;;;;;0.88;0.50;;;15.70;99.90;;;;;;4994330;28;20045;-69
2022/10/15 06:16:15;;;;;;;0.95;0.50;;;15.80;99.90;;;;;;4977399;28;20037;-70
2022/10/15 06:18:40;;;;;;;0.45;0.45;;;15.80;99.90;;;;;;4994653;28;20037;-69
2022/10/15 06:21:07;;;;;;;1.40;0.45;;;15.80;99.90;;;;;;4994843;28;20030;-69
2022/10/15 06:23:34;;;;;;;0.20;0.20;;;15.80;99.90;;;;;;4994268;28;20101;-69
2022/10/15 06:26:04;;;;;;;2.38;0.63;;;15.90;99.90;;;;;;4994910;28;20041;-69
2022/10/15 06:28:31;;;;;;;0.17;0.13;;;15.90;99.90;;;;;;4977004;28;20034;-70
2022/10/15 06:30:59;;;;;;;0.93;0.65;;;15.90;99.90;;;;;;4994638;28;20401;-69
2022/10/15 06:33:25;;;;;;;3.03;0.57;;;15.90;99.90;;;;;;4994329;28;20073;-69
2022/10/15 06:35:51;;;;;;;0.55;0.28;;;15.90;99.90;;;;;;4977332;28;20054;-69
2022/10/15 06:38:16;;;;;;;2.10;0.45;;;15.90;99.90;;;;;;4994204;28;20072;-69
2022/10/15 06:40:42;;;;;;;0.35;0.30;;;15.90;99.90;;;;;;4994258;28;20045;-69
2022/10/15 06:43:10;;;;;;;7.22;0.57;;;15.90;99.90;;;;;;4993983;28;20113;-69
2022/10/15 06:45:40;;;;;;;0.38;0.20;;;15.90;99.90;;;;;;4994364;28;20030;-70
2022/10/15 06:48:06;;;;;;;0.50;0.40;;;16.00;99.90;;;;;;4994027;28;20030;-69
2022/10/15 06:50:34;;;;;;;1.05;0.60;;;16.00;99.90;;;;;;4994216;28;20033;-69
2022/10/15 06:53:00;;;;;;;0.88;0.75;;;16.00;99.90;;;;;;4976433;28;20052;-69
2022/10/15 06:55:27;;;;;;;0.55;0.35;;;16.10;99.90;;;;;;4994289;28;20565;-69
2022/10/15 06:57:54;;;;;;;0.50;0.43;;;16.10;99.90;;;;;;4976764;28;20101;-69
2022/10/15 07:00:19;;;;;;;0.43;0.35;;;16.10;99.90;;;;;;4976579;28;20022;-69
2022/10/15 07:02:45;;;;;;;1.45;0.50;;;16.10;99.90;;;;;;4993498;28;20413;-69
2022/10/15 07:05:11;;;;;;;1.15;0.38;;;16.10;99.90;;;;;;4993960;28;20113;-70
2022/10/15 07:07:36;;;;;;;2.05;0.88;;;16.10;99.90;;;;;;4993813;28;20057;-69
2022/10/15 07:10:02;;;;;;;1.92;0.95;;;16.10;99.90;;;;;;4993943;28;20039;-69
2022/10/15 07:12:28;;;;;;;1.10;0.52;;;16.10;99.90;;;;;;4991312;28;20097;-69
2022/10/15 07:14:54;;;;;;;2.90;1.15;;;16.10;99.90;;;;;;4993543;28;20113;-69
2022/10/15 07:17:19;;;;;;;1.85;1.02;;;16.10;99.90;;;;;;4993407;28;20482;-69
2022/10/15 07:19:45;;;;;;;0.30;0.30;;;16.10;99.90;;;;;;4991178;28;20027;-69
2022/10/15 07:22:11;;;;;;;1.63;0.77;;;16.10;99.90;;;;;;4993381;28;20069;-69
2022/10/15 07:24:36;;;;;;;0.50;0.30;;;16.10;99.90;;;;;;4993212;28;20762;-68
2022/10/15 07:27:02;;;;;;;5.00;1.25;;;16.10;99.90;;;;;;5009514;28;20034;-72
2022/10/15 07:29:28;;;;;;;1.10;0.63;;;16.00;99.90;;;;;;5008999;28;20503;-69
2022/10/15 07:31:54;;;;;;;1.75;1.02;;;16.00;99.90;;;;;;5008571;28;20092;-68
2022/10/15 07:34:20;;;;;;;4.82;2.53;;;16.00;99.90;;;;;;5008121;28;20041;-69
2022/10/15 07:36:45;;;;;;;0.80;0.65;;;16.00;99.90;;;;;;5009038;28;20029;-68
2022/10/15 07:39:11;;;;;;;0.43;0.30;;;16.00;99.90;;;;;;5010465;28;20030;-69
2022/10/15 07:41:37;;;;;;;0.82;0.50;;;16.00;99.90;;;;;;5012710;28;20038;-68
2022/10/15 07:44:03;;;;;;;0.57;0.25;;;16.00;99.90;;;;;;5012388;28;20052;-68
2022/10/15 07:46:29;;;;;;;2.65;0.63;;;16.00;99.90;;;;;;5012720;28;20083;-69
2022/10/15 07:48:54;;;;;;;1.17;0.73;;;16.00;99.90;;;;;;5027803;28;20061;-67
2022/10/15 07:51:20;;;;;;;1.15;0.57;;;16.10;99.90;;;;;;5027534;28;20093;-68
2022/10/15 07:53:46;;;;;;;1.00;0.68;;;16.10;99.90;;;;;;5012281;28;20038;-70
2022/10/15 07:56:14;;;;;;;4.60;0.75;;;16.20;99.90;;;;;;5012444;28;20768;-74
2022/10/15 07:58:41;;;;;;;0.93;0.65;;;16.20;99.90;;;;;;5027435;28;20030;-68
2022/10/15 08:01:09;;;;;;;0.70;0.50;;;16.40;99.90;;;;;;5012291;28;20126;-70
2022/10/15 08:03:36;;;;;;;3.97;0.90;;;16.30;99.90;;;;;;5011873;28;20034;-69
2022/10/15 08:06:06;;;;;;;1.00;0.60;;;16.30;99.90;;;;;;5010796;28;20401;-69
2022/10/15 08:08:34;;;;;;;1.65;0.80;;;16.40;99.90;;;;;;4994552;28;20041;-68
2022/10/15 08:11:09;;;;;;;1.48;0.90;;;16.50;99.90;;;;;;4991051;28;20089;-69
2022/10/15 08:13:37;;;;;;;1.02;0.70;;;16.50;99.90;;;;;;4990849;28;20034;-68
2022/10/15 08:16:04;;;;;;;6.22;0.68;;;16.50;99.90;;;;;;4975089;28;20029;-68
2022/10/15 08:18:29;;;;;;;2.15;1.25;;;16.50;99.90;;;;;;4992265;28;20038;-68
2022/10/15 08:20:59;;;;;;;0.82;0.60;;;16.50;99.90;;;;;;4996318;28;20029;-68
2022/10/15 08:23:26;;;;;;;1.63;0.75;;;16.50;99.90;;;;;;5009703;28;20044;-70
2022/10/15 08:25:51;;;;;;;3.63;1.30;;;16.50;99.90;;;;;;5010233;28;20160;-70
2022/10/15 08:28:17;;;;;;;4.20;1.40;;;16.50;99.90;;;;;;5010376;28;20069;-70
2022/10/15 08:30:43;;;;;;;4.32;1.80;;;16.50;99.90;;;;;;5010119;28;20478;-70
2022/10/15 08:33:09;;;;;;;2.95;1.15;;;16.70;99.90;;;;;;5012770;28;20061;-70
2022/10/15 08:35:37;;;;;;;1.70;1.13;;;16.70;99.90;;;;;;5011253;28;20030;-69
2022/10/15 08:38:04;;;;;;;3.20;1.20;;;16.80;99.90;;;;;;5010784;28;20497;-70
2022/10/15 08:40:30;;;;;;;2.20;1.10;;;16.90;99.90;;;;;;5020037;28;20045;-70
2022/10/15 08:42:56;;;;;;;5.18;0.95;;;16.90;99.90;;;;;;5010765;28;20033;-69
2022/10/15 08:45:38;;;;;;;1.98;1.10;;;16.80;99.90;;;;;;4999239;28;20025;-69
2022/10/15 08:48:18;;;;;;;3.13;1.10;;;16.80;99.90;;;;;;5024246;28;20037;-69
2022/10/15 08:51:02;;;;;;;1.60;0.80;;;16.80;99.90;;;;;;4993905;28;20022;-67
2022/10/15 08:53:29;;;;;;;2.22;1.17;;;16.90;99.90;;;;;;4996635;28;20096;-67
2022/10/15 08:56:03;;;;;;;1.80;0.93;;;17.00;99.90;;;;;;4990184;28;20766;-67
2022/10/15 08:59:02;;;;;;;2.50;1.02;;;16.90;99.90;;;;;;5001292;28;20500;-68
2022/10/15 09:01:46;;;;;;;2.63;1.38;;;16.90;99.90;;;;;;5004532;28;20038;-68
2022/10/15 09:04:22;;;;;;;2.17;1.10;;;17.00;99.90;;;;;;4989602;28;20041;-68
2022/10/15 09:07:01;;;;;;;2.00;1.00;;;17.00;99.90;;;;;;4991223;28;20552;-68
2022/10/15 09:09:50;;;;;;;1.25;0.70;;;17.10;99.90;;;;;;4974803;28;20030;-68
2022/10/15 09:12:57;;;;;;;2.30;1.27;;;17.10;99.90;;;;;;5007452;28;20034;-69
2022/10/15 09:15:24;;;;;;;1.85;1.15;;;17.00;99.90;;;;;;5010534;28;20033;-69
2022/10/15 09:17:53;;;;;;;4.82;1.33;;;16.90;99.90;;;;;;4992423;28;20030;-69
2022/10/15 09:20:28;;;;;;;6.65;1.50;;;16.80;99.90;;;;;;4989718;28;20035;-68
2022/10/15 09:22:54;;;;;;;2.40;1.63;;;16.80;99.90;;;;;;4990525;28;20034;-68
2022/10/15 09:25:23;;;;;;;1.80;1.23;;;16.80;99.90;;;;;;4990795;28;20084;-69
2022/10/15 09:27:51;;;;;;;5.85;1.38;;;16.80;99.90;;;;;;4982427;28;20081;-68
2022/10/15 09:30:45;;;;;;;1.85;1.10;;;16.70;99.90;;;;;;4990542;28;20045;-68
2022/10/15 09:33:44;;;;;;;2.28;1.20;;;16.70;99.90;;;;;;5005468;28;20092;-70
2022/10/15 09:36:38;;;;;;;2.65;1.33;;;16.70;99.90;;;;;;5009893;28;20033;-70
2022/10/15 09:39:37;;;;;;;3.13;1.63;;;16.70;99.90;;;;;;4976572;28;20053;-70
2022/10/15 09:42:35;;;;;;;2.95;1.33;;;16.60;99.90;;;;;;5010850;28;20126;-68
2022/10/15 09:45:13;;;;;;;1.63;1.02;;;16.50;99.90;;;;;;4997171;28;20038;-69
2022/10/15 09:47:41;;;;;;;7.85;1.85;;;16.50;99.90;;;;;;4996377;28;20091;-69
2022/10/15 09:50:11;;;;;;;2.15;1.20;;;16.50;99.90;;;;;;5014399;28;20038;-69
2022/10/15 09:53:27;;;;;;;2.50;1.20;;;16.50;99.90;;;;;;4996511;28;20189;-69
2022/10/15 09:56:21;;;;;;;1.80;1.00;;;16.60;99.90;;;;;;4886409;29;20802;-70
2022/10/15 09:58:55;;;;;;;3.38;1.08;;;16.60;99.90;;;;;;4899670;29;20466;-70
2022/10/15 10:01:28;;;;;;;1.88;1.13;;;16.60;99.90;;;;;;4899345;29;20610;-69
2022/10/15 10:04:19;;;;;;;2.22;0.68;;;16.70;99.90;;;;;;4899032;29;20132;-69
2022/10/15 10:06:56;;;;;;;;;;;16.60;99.90;;;;;;4915651;29;20062;-69
2022/10/15 10:09:50;;;;;;;3.17;1.10;;;16.70;99.90;;;;;;4929961;29;19915;-71
2022/10/15 10:12:34;;;;;;;0.30;0.30;;;16.90;99.90;;;;;;4909666;29;20048;-71
2022/10/15 10:15:08;;;;;;;1.35;0.70;;;17.00;99.90;;;;;;4929864;29;20036;-70
2022/10/15 10:17:34;;;;;;;0.75;0.63;;;17.00;99.90;;;;;;4928948;29;20716;-70
2022/10/15 10:20:08;;;;;;;4.55;0.77;;;17.10;99.90;;;;;;4914188;29;20074;-69
2022/10/15 10:22:55;;;;;;;0.47;0.40;;;17.20;99.90;;;;;;4913829;29;20163;-70
2022/10/15 10:25:41;;;;;;;0.50;0.40;;;17.20;99.90;;;;;;4913816;29;20063;-72
2022/10/15 10:28:12;;;;;;;0.28;0.28;;;17.20;99.90;;;;;;4913753;29;20044;-70
2022/10/15 10:30:57;;;;;;;1.65;0.50;;;17.20;99.90;;;;;;4913636;29;20043;-70
2022/10/15 10:33:48;;;;;;;1.17;0.65;;;17.30;99.90;;;;;;5010161;28;20049;-70
2022/10/15 10:36:33;;;;;;;1.70;0.75;;;17.30;99.90;;;;;;4993909;28;20080;-70
2022/10/15 10:39:14;;;;;;;0.20;0.20;;;17.30;99.90;;;;;;5008212;28;20506;-71
2022/10/15 10:41:59;;;;;;;;;;;17.40;99.90;;;;;;4994293;28;20066;-70
2022/10/15 10:44:34;;;;;;;0.43;0.35;;;17.30;99.90;;;;;;4993565;28;19956;-70
2022/10/15 10:47:24;;;;;;;0.32;0.30;;;17.40;99.90;;;;;;4993550;28;20045;-70
2022/10/15 10:49:53;;;;;;;0.20;0.13;;;17.50;99.90;;;;;;4993547;28;20038;-70
2022/10/15 10:52:23;;;;;;;3.20;0.60;;;17.50;99.90;;;;;;4995580;28;20038;-70
2022/10/15 10:55:23;;;;;;;0.30;0.17;;;17.70;99.90;;;;;;5011737;28;20034;-70
2022/10/15 10:58:01;;;;;;;0.30;0.20;;;17.80;99.90;;;;;;5013458;28;20045;-68
2022/10/15 11:00:43;;;;;;;7.35;0.55;;;17.80;99.90;;;;;;4996440;28;20119;-67
2022/10/15 11:03:34;;;;;;;1.63;0.22;;;18.00;99.90;;;;;;5028054;28;20022;-69
2022/10/15 11:06:28;;;;;;;1.63;0.50;;;18.10;99.90;;;;;;5013526;28;20030;-69
2022/10/15 11:09:21;;;;;;;1.70;0.60;;;18.40;99.90;;;;;;5013321;28;20030;-69
2022/10/15 11:12:02;;;;;;;1.55;0.32;;;18.50;99.90;;;;;;4995772;28;20088;-71
2022/10/15 11:14:55;;;;;;;0.45;0.43;;;18.60;99.90;;;;;;5013129;28;20072;-68
2022/10/15 11:17:41;;;;;;;1.30;0.47;;;18.50;99.90;;;;;;4996295;28;20041;-68
2022/10/15 11:20:27;;;;;;;0.80;0.50;;;18.30;99.90;;;;;;5010870;28;20034;-68
2022/10/15 11:23:29;;;;;;;0.70;0.38;;;18.10;99.90;;;;;;4993047;28;20037;-69
2022/10/15 11:26:19;;;;;;;0.10;0.10;;;18.00;99.90;;;;;;4994245;28;20040;-69
2022/10/15 11:28:58;;;;;;;0.45;0.22;;;18.00;99.90;;;;;;5011359;28;20026;-69
2022/10/15 11:31:50;;;;;;;1.35;1.05;;;17.80;99.90;;;;;;4967586;28;20505;-70
2022/10/15 11:35:07;;;;;;;0.45;0.30;;;17.90;99.90;;;;;;4994691;28;20025;-72
2022/10/15 11:37:58;;;;;;;2.42;0.70;;;18.10;99.90;;;;;;5000593;28;20026;-68
2022/10/15 11:41:26;;;;;;;1.13;0.87;;;18.50;99.90;;;;;;5012799;28;20533;-70
2022/10/15 11:44:12;;;;;;;1.27;0.52;;;18.60;99.90;;;;;;5011430;28;20092;-69
2022/10/15 11:47:29;;;;;;;0.25;0.25;;;18.50;99.90;;;;;;5012636;28;20069;-68
2022/10/15 11:50:31;;;;;;;1.98;0.45;;;18.50;99.90;;;;;;4975541;28;20070;-69
2022/10/15 11:53:33;;;;;;;1.15;0.40;;;18.50;99.90;;;;;;4995537;28;20458;-69
2022/10/15 11:56:26;;;;;;;2.15;0.43;;;18.50;99.90;;;;;;4996612;28;20096;-69
2022/10/15 11:59:13;;;;;;;0.70;0.45;;;18.40;99.90;;;;;;4997330;28;20048;-68
2022/10/15 12:02:01;;;;;;;0.77;0.30;;;18.30;99.90;;;;;;4996111;28;20030;-68
2022/10/15 12:04:46;;;;;;;1.70;0.43;;;18.30;99.90;;;;;;4994353;28;20121;-69
2022/10/15 12:07:48;;;;;;;0.10;0.10;;;18.20;99.90;;;;;;5012137;28;20026;-68
2022/10/15 12:10:46;;;;;;;0.82;0.40;;;18.10;99.90;;;;;;5007072;28;20034;-69
2022/10/15 12:13:47;;;;;;;2.80;0.28;;;18.20;99.90;;;;;;5011724;28;20111;-69
2022/10/15 12:16:37;;;;;;;0.17;0.10;;;18.30;99.90;;;;;;4997452;28;20037;-69
2022/10/15 12:19:25;;;;;;;0.00;0.00;;;18.40;99.90;;;;;;5011976;28;20069;-71
2022/10/15 12:21:54;;;;;;;4.70;0.38;;;18.40;99.90;;;;;;5011815;28;20045;-62
2022/10/15 12:24:43;;;;;;;0.30;0.20;;;18.40;99.90;;;;;;5011449;28;20603;-62
2022/10/15 12:27:18;;;;;;;0.30;0.30;;;18.30;99.90;;;;;;5008120;28;20034;-69
2022/10/15 12:30:10;;;;;;;4.60;0.52;;;18.30;99.90;;;;;;5010992;28;20033;-69
2022/10/15 12:32:45;;;;;;;1.52;0.52;;;18.10;99.90;;;;;;4995880;28;20168;-69
2022/10/15 12:35:14;;;;;;;0.90;0.75;;;18.00;99.90;;;;;;5010890;28;20169;-69
2022/10/15 12:37:45;;;;;;;1.02;0.40;;;17.90;99.90;;;;;;5010634;28;20398;-69
2022/10/15 12:40:30;;;;;;;0.32;0.17;;;17.90;99.90;;;;;;5011277;28;20119;-70
2022/10/15 12:43:18;;;;;;;1.65;0.65;;;17.90;99.90;;;;;;5010853;28;20030;-69
2022/10/15 12:45:56;;;;;;;0.75;0.52;;;17.90;99.90;;;;;;5010166;28;20041;-69
2022/10/15 12:48:43;;;;;;;0.50;0.30;;;17.90;99.90;;;;;;5025357;28;20034;-69
2022/10/15 12:51:15;;;;;;;1.30;0.52;;;18.00;99.90;;;;;;5025862;28;20112;-69
2022/10/15 12:53:43;;;;;;;0.30;0.30;;;17.90;99.90;;;;;;5010658;28;20052;-70
2022/10/15 12:56:09;;;;;;;0.20;0.20;;;17.80;99.90;;;;;;5011156;28;20496;-70
2022/10/15 12:58:40;;;;;;;0.43;0.22;;;17.80;99.90;;;;;;5011114;28;20029;-70
2022/10/15 13:01:14;;;;;;;0.32;0.15;;;17.70;99.90;;;;;;5026339;28;20030;-69
2022/10/15 13:03:55;;;;;;;0.63;0.60;;;17.70;99.90;;;;;;5010659;28;20528;-70
2022/10/15 13:06:21;;;;;;;2.60;0.40;;;17.80;99.90;;;;;;5010936;28;20068;-68
2022/10/15 13:09:08;;;;;;;2.58;0.40;;;17.80;99.90;;;;;;5010773;28;20069;-68
2022/10/15 13:11:47;;;;;;;0.38;0.30;;;17.70;99.90;;;;;;5012983;28;20026;-68
2022/10/15 13:14:37;;;;;;;1.50;0.55;;;17.70;99.90;;;;;;4992037;28;20040;-68
2022/10/15 13:17:17;;;;;;;0.95;0.50;;;17.60;99.90;;;;;;4990090;28;20116;-68
2022/10/15 13:20:05;;;;;;;3.80;0.30;;;17.60;99.90;;;;;;5021479;28;20495;-71
2022/10/15 13:22:33;;;;;;;0.68;0.28;;;17.70;99.90;;;;;;4993939;28;20026;-68